M I D A S
Marine Information and Data Acquisition System
Tripno 1282 of the Zeeleeuw from 2007-06-01 07:08:00 to 2007-06-01 14:50:19
Back to CruiseResearch ActivitiesStationsMapUnderway DataData graphs

EquipmentUnitsComment
TimeDGPSUTC
LatitudeDGPSDM.mWGS84
LongitudeDGPSDM.mWGS84
HeadingGyrodeg 
SOGDGPSknotsSpeed over ground
COGDGPSdegCourse over ground
DepthEcho soundermeters200 kHz
Missing or incorrect values are displayed as -999
Navigation data collected by the RV Zeeleeuw from 2007-06-01 06:37:52 to 2007-06-01 14:59:49
Time Latitude Longitude Heading SOG COG Depth
2007-06-01 06:38:57 51°13.595 2°56.095 126.4 -999 10 -999
2007-06-01 06:39:57 51°13.596 2°56.095 126.3 -999 7 7.1
2007-06-01 06:40:57 51°13.597 2°56.094 126.3 -999 318 7.1
2007-06-01 06:41:57 51°13.597 2°56.094 126.3 -999 77 7.1
2007-06-01 06:42:57 51°13.597 2°56.095 126.3 -999 30 7.1
2007-06-01 06:43:57 51°13.597 2°56.094 126.3 -999 164 7.1
2007-06-01 06:44:57 51°13.598 2°56.094 126.3 -999 182 5.4
2007-06-01 06:45:57 51°13.599 2°56.094 126.3 -999 326 7.1
2007-06-01 06:46:57 51°13.599 2°56.094 126.3 -999 194 7.1
2007-06-01 06:47:57 51°13.598 2°56.095 126.3 -999 66 7.1
2007-06-01 06:48:57 51°13.599 2°56.094 126.3 -999 303 7.1
2007-06-01 06:49:57 51°13.599 2°56.094 126.4 -999 231 7.1
2007-06-01 06:50:57 51°13.599 2°56.094 126.4 -999 303 7.2
2007-06-01 06:51:57 51°13.599 2°56.094 126.4 -999 283 7.2
2007-06-01 06:52:57 51°13.599 2°56.094 126.3 0.1 182 7.1
2007-06-01 06:53:57 51°13.598 2°56.094 126.2 -999 147 5.3
2007-06-01 06:54:57 51°13.596 2°56.094 128 0.1 135 7.1
2007-06-01 06:55:57 51°13.597 2°56.095 121.1 0.1 161 5.4
2007-06-01 06:56:57 51°13.6 2°56.081 113.9 2.3 295 7.3
2007-06-01 06:57:57 51°13.627 2°55.987 117.9 4.5 296 -999
2007-06-01 06:58:57 51°13.671 2°55.87 128.6 5.8 305 -999
2007-06-01 06:59:57 51°13.737 2°55.745 138.6 6.3 315 -999
2007-06-01 07:00:57 51°13.825 2°55.647 160.2 6.6 336 -999
2007-06-01 07:01:57 51°13.917 2°55.638 203 4.8 16 -999
2007-06-01 07:02:57 51°13.956 2°55.662 243.4 1.7 264 9.8
2007-06-01 07:03:57 51°13.993 2°55.542 315.4 6.1 317 9.9
2007-06-01 07:04:57 51°14.085 2°55.457 339.4 6.6 335 10.1
2007-06-01 07:05:57 51°14.192 2°55.371 335.3 8.8 330 -999
2007-06-01 07:06:57 51°14.317 2°55.172 310.5 11.8 306 9.9
2007-06-01 07:07:57 51°14.454 2°54.915 319.3 13.4 314 9.7
2007-06-01 07:08:57 51°14.627 2°54.707 338 13 329 8.3
2007-06-01 07:09:57 51°14.804 2°54.504 330.9 13.1 323 8.2
2007-06-01 07:10:57 51°14.982 2°54.309 333.9 12.6 324 7.3
2007-06-01 07:11:57 51°15.143 2°54.09 331.5 12.8 326 7.6
2007-06-01 07:12:57 51°15.33 2°53.927 339.3 13 327 8.4
2007-06-01 07:13:57 51°15.505 2°53.715 334.3 13.2 325 9
2007-06-01 07:14:57 51°15.686 2°53.518 334.9 13.1 325 9.5
2007-06-01 07:15:57 51°15.869 2°53.331 339.2 13 329 10.1
2007-06-01 07:16:57 51°16.054 2°53.152 340.2 12.9 332 10.5
2007-06-01 07:17:57 51°16.245 2°52.996 344 12.8 334 10.7
2007-06-01 07:18:57 51°16.439 2°52.86 348.5 12.7 340 10.6
2007-06-01 07:19:57 51°16.638 2°52.743 347.5 12.7 339 10.1
2007-06-01 07:20:57 51°16.833 2°52.628 347.4 12.5 339 8.7
2007-06-01 07:21:57 51°17.027 2°52.514 349 12.3 340 8.5
2007-06-01 07:22:57 51°17.219 2°52.393 347.9 12.5 340 8.9
2007-06-01 07:23:57 51°17.399 2°52.222 330.7 12.8 320 9.3
2007-06-01 07:24:57 51°17.528 2°51.949 310.9 13.1 302 9.4
2007-06-01 07:25:57 51°17.643 2°51.655 312.5 13 303 9
2007-06-01 07:26:57 51°17.754 2°51.356 307 13.2 296 8.9
2007-06-01 07:27:57 51°17.849 2°51.032 304.8 13.6 296 9.8
2007-06-01 07:28:57 51°17.944 2°50.703 304.8 13.6 294 11.6
2007-06-01 07:29:57 51°18.038 2°50.375 304.8 13.6 295 12.3
2007-06-01 07:30:57 51°18.133 2°50.047 304.9 13.6 295 13.1
2007-06-01 07:31:57 51°18.227 2°49.718 304.8 13.6 295 12.8
2007-06-01 07:32:57 51°18.32 2°49.392 304.1 13.5 294 10.2
2007-06-01 07:33:57 51°18.413 2°49.064 304.4 13.5 295 9.5
2007-06-01 07:34:57 51°18.508 2°48.733 303.9 13.8 294 9.9
2007-06-01 07:35:57 51°18.605 2°48.4 304.1 13.9 295 11.5
2007-06-01 07:36:57 51°18.702 2°48.067 304.6 13.8 295 13.4
2007-06-01 07:37:57 51°18.796 2°47.732 304.1 13.8 294 15.3
2007-06-01 07:38:57 51°18.89 2°47.397 304.6 13.7 294 17.8
2007-06-01 07:39:57 51°18.983 2°47.06 304 13.9 294 19.3
2007-06-01 07:40:57 51°19.076 2°46.717 304.3 14.1 293 20.2
2007-06-01 07:41:57 51°19.17 2°46.372 304 14.2 294 20.1
2007-06-01 07:42:57 51°19.264 2°46.026 304.1 14.2 293 18.4
2007-06-01 07:43:57 51°19.358 2°45.683 304.6 14.1 294 14.4
2007-06-01 07:44:57 51°19.455 2°45.346 304.5 13.9 296 10.5
2007-06-01 07:45:57 51°19.556 2°45.007 304.5 14.1 295 17.2
2007-06-01 07:46:57 51°19.653 2°44.669 303.7 13.9 294 21
2007-06-01 07:47:57 51°19.749 2°44.332 304.5 14 294 22.7
2007-06-01 07:48:57 51°19.843 2°43.991 304.1 14 293 22.8
2007-06-01 07:49:57 51°19.938 2°43.648 304 14.2 293 25.3
2007-06-01 07:50:57 51°20.032 2°43.304 304 14.2 293 25.2
2007-06-01 07:51:57 51°20.126 2°42.96 303.7 14.1 293 25.3
2007-06-01 07:52:57 51°20.219 2°42.616 304.5 14 293 22.7
2007-06-01 07:53:57 51°20.313 2°42.274 304.7 14 294 19.3
2007-06-01 07:54:57 51°20.41 2°41.935 304.5 13.9 295 15
2007-06-01 07:55:57 51°20.508 2°41.599 304.8 14 295 19.5
2007-06-01 07:56:57 51°20.603 2°41.264 301 14 291 25.6
2007-06-01 07:57:57 51°20.672 2°40.909 291.2 14 281 25.1
2007-06-01 07:58:57 51°20.706 2°40.536 285.9 14.1 278 26.2
2007-06-01 07:59:57 51°20.739 2°40.164 286.5 14.1 278 25.9
2007-06-01 08:00:57 51°20.772 2°39.793 286.7 14.2 278 24.4
2007-06-01 08:01:57 51°20.8 2°39.418 284.3 14.3 274 23.9
2007-06-01 08:02:57 51°20.813 2°39.039 281 14.4 272 24.5
2007-06-01 08:03:57 51°20.83 2°38.658 282.9 14.3 275 24
2007-06-01 08:04:57 51°20.85 2°38.278 283.4 14.3 274 23.4
2007-06-01 08:05:57 51°20.869 2°37.9 283.5 14.3 275 23.5
2007-06-01 08:06:57 51°20.887 2°37.52 283 14.3 274 24
2007-06-01 08:07:57 51°20.906 2°37.139 283.2 14.4 275 21.8
2007-06-01 08:08:57 51°20.926 2°36.757 283.3 14.5 275 23.1
2007-06-01 08:09:57 51°20.948 2°36.374 283.6 14.4 275 24.7
2007-06-01 08:10:57 51°20.969 2°35.989 283 14.5 275 27.4
2007-06-01 08:11:57 51°20.991 2°35.603 283.7 14.6 275 25.5
2007-06-01 08:12:57 51°21.012 2°35.217 282.7 14.6 274 29.7
2007-06-01 08:13:57 51°21.033 2°34.826 283.1 14.9 275 30.8
2007-06-01 08:14:57 51°21.101 2°34.46 309.1 14.2 301 30.7
2007-06-01 08:15:57 51°21.233 2°34.148 315.1 14.1 304 29.6
2007-06-01 08:16:57 51°21.375 2°33.851 320.1 14 308 32.3
2007-06-01 08:17:57 51°21.517 2°33.563 319.7 13.7 308 28.7
2007-06-01 08:18:57 51°21.68 2°33.334 341.2 12.7 333 24.2
2007-06-01 08:19:57 51°21.872 2°33.198 346.9 12.6 337 22.6
2007-06-01 08:20:57 51°22.066 2°33.074 351.2 12.4 340 27.9
2007-06-01 08:21:57 51°22.261 2°32.958 351.6 12.6 338 30.6
2007-06-01 08:22:57 51°22.451 2°32.814 340 13 324 30.7
2007-06-01 08:23:57 51°22.6 2°32.548 319.7 13.8 301 30.7
2007-06-01 08:24:57 51°22.65 2°32.177 280.3 15 270 30.6
2007-06-01 08:25:57 51°22.643 2°31.776 276 15.2 268 30
2007-06-01 08:26:57 51°22.641 2°31.373 277.9 15.1 270 29.9
2007-06-01 08:27:57 51°22.644 2°30.971 277.8 15.1 271 29.4
2007-06-01 08:28:57 51°22.643 2°30.57 276.6 15.1 269 28.1
2007-06-01 08:29:57 51°22.636 2°30.168 274.3 15.1 268 32.2
2007-06-01 08:30:57 51°22.629 2°29.768 275.8 15 269 32.6
2007-06-01 08:31:57 51°22.622 2°29.37 275.6 15 269 32.3
2007-06-01 08:32:57 51°22.617 2°28.97 275.6 15.1 269 33.4
2007-06-01 08:33:57 51°22.602 2°28.568 273 15.2 266 34.1
2007-06-01 08:34:57 51°22.584 2°28.165 272.5 15.2 266 32.9
2007-06-01 08:35:57 51°22.567 2°27.761 274.1 15.2 266 33.9
2007-06-01 08:36:57 51°22.55 2°27.357 272.6 15.2 266 33.8
2007-06-01 08:37:57 51°22.532 2°26.952 273.3 15.3 266 34.1
2007-06-01 08:38:57 51°22.516 2°26.547 273.1 15.3 266 32.6
2007-06-01 08:39:57 51°22.496 2°26.145 273.6 15.2 266 30.4
2007-06-01 08:40:57 51°22.489 2°25.746 281 14.7 274 25.8
2007-06-01 08:41:57 51°22.579 2°25.406 317.8 13.5 310 18.9
2007-06-01 08:42:57 51°22.758 2°25.222 352.7 12.4 345 29.6
2007-06-01 08:43:57 51°22.96 2°25.203 11.2 12.2 2 31.6
2007-06-01 08:44:57 51°23.16 2°25.243 19.4 12 11 32.7
2007-06-01 08:45:57 51°23.357 2°25.297 18.7 12.1 8 32.8
2007-06-01 08:46:57 51°23.556 2°25.347 20.4 12.1 10 32.9
2007-06-01 08:47:57 51°23.753 2°25.407 19.9 12 10 33
2007-06-01 08:48:57 51°23.951 2°25.464 19.9 12.1 10 31.9
2007-06-01 08:49:57 51°24.149 2°25.519 18.6 12.1 10 33.1
2007-06-01 08:50:57 51°24.346 2°25.572 18.9 12 10 33
2007-06-01 08:51:57 51°24.542 2°25.625 18.3 12 9 35.2
2007-06-01 08:52:57 51°24.738 2°25.676 18.6 12 9 36
2007-06-01 08:53:57 51°24.934 2°25.727 18.1 11.9 9 34.7
2007-06-01 08:54:57 51°25.129 2°25.776 18 11.8 8 33.3
2007-06-01 08:55:57 51°25.321 2°25.841 22.4 11.8 14 33.4
2007-06-01 08:56:57 51°25.513 2°25.91 21.7 11.7 13 35.3
2007-06-01 08:57:57 51°25.704 2°25.979 21.5 11.9 12 31.2
2007-06-01 08:58:57 51°25.893 2°26.047 20.7 11.7 12 31.1
2007-06-01 08:59:57 51°26.082 2°26.121 22.2 11.7 14 30.1
2007-06-01 09:00:57 51°26.274 2°26.178 18.1 11.9 10 27.9
2007-06-01 09:01:57 51°26.468 2°26.233 17.5 11.7 10 24.8
2007-06-01 09:02:57 51°26.66 2°26.289 18.1 11.8 10 24.9
2007-06-01 09:03:57 51°26.853 2°26.343 17.6 11.8 10 22.7
2007-06-01 09:04:57 51°27.046 2°26.4 18.6 11.8 10 23.7
2007-06-01 09:05:57 51°27.24 2°26.458 18 11.9 10 29.2
2007-06-01 09:06:57 51°27.434 2°26.517 18.7 11.9 12 32.4
2007-06-01 09:07:57 51°27.628 2°26.578 17.4 11.9 12 32.8
2007-06-01 09:08:57 51°27.823 2°26.64 18.6 11.9 12 33.8
2007-06-01 09:09:57 51°28.018 2°26.701 18.1 12 12 33.4
2007-06-01 09:10:57 51°28.214 2°26.765 18.4 12.1 11 33.6
2007-06-01 09:11:57 51°28.41 2°26.83 18.4 12.1 12 33.7
2007-06-01 09:12:57 51°28.607 2°26.894 18.2 12 10 34.1
2007-06-01 09:13:57 51°28.802 2°26.833 344.8 12.5 332 34.8
2007-06-01 09:14:57 51°28.937 2°26.577 305.5 13.4 292 34.7
2007-06-01 09:15:57 51°29 2°26.231 294.6 13.5 286 34.3
2007-06-01 09:16:57 51°29.066 2°25.886 296.5 13.5 288 31.5
2007-06-01 09:17:57 51°29.134 2°25.545 298.3 13.4 290 31
2007-06-01 09:18:57 51°29.206 2°25.208 298.9 13.3 288 27
2007-06-01 09:19:57 51°29.282 2°24.875 299.6 13.3 289 24.9
2007-06-01 09:20:57 51°29.355 2°24.539 299 13.4 289 26.4
2007-06-01 09:21:57 51°29.429 2°24.199 298.8 13.6 288 34.5
2007-06-01 09:22:57 51°29.533 2°23.89 317.9 12.8 312 39.4
2007-06-01 09:23:57 51°29.713 2°23.771 4.9 11.6 -999 40.2
2007-06-01 09:24:57 51°29.873 2°23.921 47.1 11.4 45 40.4
2007-06-01 09:25:57 51°30.011 2°24.132 43.6 11.5 37 41
2007-06-01 09:26:57 51°30.17 2°24.301 38 11.4 33 37.1
2007-06-01 09:27:57 51°30.335 2°24.461 36.5 11.6 31 39.9
2007-06-01 09:28:57 51°30.503 2°24.618 35.1 11.7 29 40.2
2007-06-01 09:29:57 51°30.672 2°24.774 35.4 11.7 30 39.5
2007-06-01 09:30:57 51°30.841 2°24.927 35.4 11.7 30 38.4
2007-06-01 09:31:57 51°31.01 2°25.084 36.1 11.8 29 39.7
2007-06-01 09:32:57 51°31.176 2°25.25 38 11.7 32 39.8
2007-06-01 09:33:57 51°31.342 2°25.417 38.2 11.8 33 40.8
2007-06-01 09:34:57 51°31.508 2°25.585 37.6 11.8 32 40.5
2007-06-01 09:35:57 51°31.675 2°25.75 37.1 11.7 33 40.4
2007-06-01 09:36:57 51°31.841 2°25.915 37.7 11.8 32 39.2
2007-06-01 09:37:57 51°32.01 2°26.08 37.6 11.8 32 39.5
2007-06-01 09:38:57 51°32.178 2°26.247 37.1 11.9 31 38.8
2007-06-01 09:39:57 51°32.346 2°26.414 37.4 12 32 38.4
2007-06-01 09:40:57 51°32.516 2°26.579 37.1 11.9 31 36.6
2007-06-01 09:41:57 51°32.686 2°26.748 36.8 12 32 38.5
2007-06-01 09:42:57 51°32.854 2°26.921 37.8 12 32 37.9
2007-06-01 09:43:57 51°33.025 2°27.089 37.3 12 32 36.5
2007-06-01 09:44:57 51°33.194 2°27.256 37 11.9 31 38.1
2007-06-01 09:45:57 51°33.362 2°27.426 37.3 11.9 33 35.6
2007-06-01 09:46:57 51°33.531 2°27.599 38.3 12.1 34 38.6
2007-06-01 09:47:57 51°33.699 2°27.776 38.5 12 34 35.8
2007-06-01 09:48:57 51°33.866 2°27.954 39.2 12 34 34.2
2007-06-01 09:49:57 51°34.033 2°28.131 38.4 12.1 34 36.6
2007-06-01 09:50:57 51°34.201 2°28.308 37.7 12 34 36.2
2007-06-01 09:51:57 51°34.367 2°28.484 38.5 12 33 35.2
2007-06-01 09:52:57 51°34.534 2°28.664 38.2 12.1 34 34.8
2007-06-01 09:53:57 51°34.702 2°28.842 37.7 12 33 35.5
2007-06-01 09:54:57 51°34.867 2°29.02 37.5 12 33 34.9
2007-06-01 09:55:57 51°35.036 2°29.186 36 12 32 32.9
2007-06-01 09:56:57 51°35.205 2°29.352 36.2 11.8 32 35.5
2007-06-01 09:57:57 51°35.373 2°29.519 36.3 11.8 31 33.7
2007-06-01 09:58:57 51°35.543 2°29.685 36.3 12 34 33.5
2007-06-01 09:59:57 51°35.711 2°29.855 36.6 12 31 37.1
2007-06-01 10:00:57 51°35.88 2°30.024 36.7 12 32 37.2
2007-06-01 10:01:57 51°36.048 2°30.192 36.1 11.8 31 36.2
2007-06-01 10:02:57 51°36.216 2°30.362 36.1 11.8 33 36.9
2007-06-01 10:03:57 51°36.383 2°30.53 36 11.8 31 36.8
2007-06-01 10:04:57 51°36.551 2°30.702 37 11.8 32 37.1
2007-06-01 10:05:57 51°36.718 2°30.873 36.3 11.9 32 37.6
2007-06-01 10:06:57 51°36.884 2°31.046 36.7 11.8 33 38.8
2007-06-01 10:07:57 51°37.043 2°31.231 46.1 11.8 48 39.1
2007-06-01 10:08:57 51°37.152 2°31.499 61.3 12.1 63 40.1
2007-06-01 10:09:57 51°37.234 2°31.797 66 12.2 67 40.4
2007-06-01 10:10:57 51°37.305 2°32.104 69.9 12.3 71 40
2007-06-01 10:11:57 51°37.371 2°32.414 70.3 12.3 71 39.9
2007-06-01 10:12:57 51°37.442 2°32.724 69.9 12.4 70 40.4
2007-06-01 10:13:57 51°37.513 2°33.037 70.1 12.5 69 40.4
2007-06-01 10:14:57 51°37.585 2°33.35 70.1 12.6 71 37.8
2007-06-01 10:15:57 51°37.659 2°33.664 69.9 12.6 69 35.6
2007-06-01 10:16:57 51°37.733 2°33.979 69.9 12.6 69 31.7
2007-06-01 10:17:57 51°37.799 2°34.301 73.7 12.6 73 28.5
2007-06-01 10:18:57 51°37.862 2°34.626 73.2 12.6 72 17.3
2007-06-01 10:19:57 51°37.918 2°34.952 75.9 12.7 75 23.3
2007-06-01 10:20:57 51°37.972 2°35.281 74.9 12.6 75 31.8
2007-06-01 10:21:57 51°38.023 2°35.609 75.4 12.6 77 35.9
2007-06-01 10:22:57 51°38.073 2°35.935 74.7 12.4 76 38
2007-06-01 10:23:57 51°38.122 2°36.259 75.4 12.5 76 40
2007-06-01 10:24:57 51°38.171 2°36.584 75.4 12.5 76 41
2007-06-01 10:25:57 51°38.221 2°36.909 75.4 12.4 76 41.3
2007-06-01 10:26:57 51°38.272 2°37.236 75.8 12.6 76 40.7
2007-06-01 10:27:57 51°38.325 2°37.565 75.9 12.7 76 40
2007-06-01 10:28:57 51°38.377 2°37.894 75.6 12.7 75 38.8
2007-06-01 10:29:57 51°38.43 2°38.224 75.9 12.7 75 41.5
2007-06-01 10:30:57 51°38.484 2°38.555 74.6 12.7 75 39.9
2007-06-01 10:31:57 51°38.538 2°38.884 75.4 12.7 76 37.9
2007-06-01 10:32:57 51°38.592 2°39.213 74.9 12.7 75 35.4
2007-06-01 10:33:57 51°38.645 2°39.543 75.5 12.7 76 32.5
2007-06-01 10:34:57 51°38.7 2°39.872 75.7 12.8 75 36.7
2007-06-01 10:35:57 51°38.752 2°40.188 75.4 9.9 77 33.7
2007-06-01 10:36:57 51°38.789 2°40.352 61.6 4.6 66 34.1
2007-06-01 10:37:57 51°38.811 2°40.441 63.4 3.1 73 31.3
2007-06-01 10:38:57 51°38.819 2°40.541 80.3 6 87 29.4
2007-06-01 10:39:57 51°38.813 2°40.748 99.9 8.7 105 31.6
2007-06-01 10:40:57 51°38.762 2°40.978 106 9.3 115 29.8
2007-06-01 10:41:57 51°38.657 2°41.151 144.2 7.7 151 25.4
2007-06-01 10:42:57 51°38.566 2°41.179 187.5 4.4 186 27.9
2007-06-01 10:43:57 51°38.505 2°41.162 198.1 3.3 193 25.7
2007-06-01 10:44:57 51°38.456 2°41.15 189.3 2.9 186 26.3
2007-06-01 10:45:57 51°38.407 2°41.146 184.3 3.1 183 27.8
2007-06-01 10:46:57 51°38.353 2°41.146 182.2 3.3 180 23.9
2007-06-01 10:47:57 51°38.297 2°41.148 180.4 3.4 177 27.1
2007-06-01 10:48:57 51°38.241 2°41.154 178.8 3.4 175 23.7
2007-06-01 10:49:57 51°38.184 2°41.16 179.2 3.4 177 26.8
2007-06-01 10:50:57 51°38.129 2°41.168 178.1 3.4 175 26.1
2007-06-01 10:51:57 51°38.073 2°41.178 177 3.3 175 26.6
2007-06-01 10:52:57 51°38.017 2°41.19 175.8 3.3 171 25.9
2007-06-01 10:53:57 51°37.961 2°41.205 174.8 3.3 172 25.6
2007-06-01 10:54:57 51°37.906 2°41.219 175.7 3.4 172 25.2
2007-06-01 10:55:57 51°37.851 2°41.232 176.6 3.3 171 26
2007-06-01 10:56:57 51°37.797 2°41.248 176.5 3.4 170 22.8
2007-06-01 10:57:57 51°37.742 2°41.268 176.1 3.3 171 21.5
2007-06-01 10:58:57 51°37.69 2°41.281 178.8 3.4 172 23.2
2007-06-01 10:59:57 51°37.636 2°41.293 180.9 3.3 171 23.5
2007-06-01 11:00:57 51°37.581 2°41.304 182.1 3.2 171 23.7
2007-06-01 11:01:57 51°37.527 2°41.313 183.9 3.2 174 22.4
2007-06-01 11:02:57 51°37.474 2°41.321 185.8 3.2 172 22
2007-06-01 11:03:57 51°37.42 2°41.324 190.6 3.2 180 22.6
2007-06-01 11:04:57 51°37.371 2°41.31 211.8 2.9 202 22.8
2007-06-01 11:05:57 51°37.33 2°41.28 225.1 2.6 211 23.3
2007-06-01 11:06:57 51°37.297 2°41.246 235.9 2.1 210 20.7
2007-06-01 11:07:57 51°37.278 2°41.217 256.9 1.5 233 19
2007-06-01 11:08:57 51°37.276 2°41.178 292.6 1.4 265 19.8
2007-06-01 11:09:57 51°37.28 2°41.156 297.3 0.6 286 21.8
2007-06-01 11:10:57 51°37.279 2°41.144 292.5 0.8 241 22.7
2007-06-01 11:11:57 51°37.243 2°41.088 207.6 5 185 22.1
2007-06-01 11:12:57 51°37.182 2°41.189 104.3 7.2 97 24
2007-06-01 11:13:57 51°37.142 2°41.486 113.5 13.6 108 23.1
2007-06-01 11:14:57 51°37.123 2°41.848 87.9 12.5 82 33.4
2007-06-01 11:15:57 51°37.19 2°41.993 21.8 4.6 17 36.1
2007-06-01 11:16:57 51°37.251 2°41.982 342.6 3.4 348 35.2
2007-06-01 11:17:57 51°37.308 2°41.97 356.3 3.5 3 34.6
2007-06-01 11:18:57 51°37.364 2°41.992 16.8 3.6 25 35.9
2007-06-01 11:19:57 51°37.418 2°42.037 22.5 3.6 29 35.9
2007-06-01 11:20:57 51°37.473 2°42.082 19.8 3.7 28 36
2007-06-01 11:21:57 51°37.528 2°42.124 19 3.7 24 37.3
2007-06-01 11:22:57 51°37.583 2°42.158 12.3 3.5 19 36.5
2007-06-01 11:23:57 51°37.638 2°42.178 3.6 3.4 9 35.4
2007-06-01 11:24:57 51°37.692 2°42.207 24.2 3.5 30 36.8
2007-06-01 11:25:57 51°37.744 2°42.243 10.1 3.2 15 36.9
2007-06-01 11:26:57 51°37.796 2°42.25 350.8 3.2 357 36.5
2007-06-01 11:27:57 51°37.85 2°42.247 354.9 3.3 -999 35.7
2007-06-01 11:28:57 51°37.906 2°42.249 357.1 3.4 -999 36.3
2007-06-01 11:29:57 51°37.962 2°42.25 354.5 3.3 359 36.5
2007-06-01 11:30:57 51°38.018 2°42.246 351 3.3 355 36.1
2007-06-01 11:31:57 51°38.073 2°42.237 348 3.4 354 36.1
2007-06-01 11:32:57 51°38.127 2°42.224 345.2 3.3 349 35.9
2007-06-01 11:33:57 51°38.182 2°42.213 349.5 3.4 355 34.7
2007-06-01 11:34:57 51°38.239 2°42.213 357.1 3.5 2 32.8
2007-06-01 11:35:57 51°38.297 2°42.226 5 3.6 12 35.8
2007-06-01 11:36:57 51°38.355 2°42.246 5.7 3.5 12 34.2
2007-06-01 11:37:57 51°38.41 2°42.262 0.3 3.2 8 33.9
2007-06-01 11:38:57 51°38.462 2°42.27 354.9 3 1 34
2007-06-01 11:39:57 51°38.512 2°42.268 349.1 2.9 356 33.1
2007-06-01 11:40:57 51°38.56 2°42.26 344.7 2.9 355 33.3
2007-06-01 11:41:57 51°38.608 2°42.252 346.7 2.9 355 32.8
2007-06-01 11:42:57 51°38.657 2°42.248 348.3 3 357 32.6
2007-06-01 11:43:57 51°38.708 2°42.252 357.6 3.1 9 32.6
2007-06-01 11:44:57 51°38.758 2°42.273 9.2 3.1 20 32.4
2007-06-01 11:45:57 51°38.8 2°42.307 20.1 2.6 32 32
2007-06-01 11:46:57 51°38.833 2°42.351 32.3 2.6 47 33.3
2007-06-01 11:47:57 51°38.853 2°42.416 77.1 3 82 34.3
2007-06-01 11:48:57 51°38.847 2°42.491 118.3 2.5 114 35.1
2007-06-01 11:49:57 51°38.834 2°42.545 125.4 2 115 34.8
2007-06-01 11:50:57 51°38.823 2°42.591 117.6 1.7 108 36.6
2007-06-01 11:51:57 51°38.812 2°42.641 121.2 3.1 116 36.7
2007-06-01 11:52:58 51°38.78 2°42.697 153.4 3.4 150 36.6
2007-06-01 11:53:57 51°38.701 2°42.677 205.4 7.7 196 36.9
2007-06-01 11:54:57 51°38.526 2°42.607 198.7 12.6 195 36.9
2007-06-01 11:55:57 51°38.32 2°42.519 198.8 12.8 196 37.6
2007-06-01 11:56:57 51°38.114 2°42.427 201.1 12.9 196 36.3
2007-06-01 11:57:57 51°37.91 2°42.328 201.7 12.8 197 36.7
2007-06-01 11:58:57 51°37.707 2°42.224 202.2 12.8 197 36.3
2007-06-01 11:59:57 51°37.505 2°42.125 202.4 12.6 197 36.9
2007-06-01 12:00:57 51°37.35 2°41.924 238.7 12 245 35.9
2007-06-01 12:01:57 51°37.319 2°41.608 275.6 12.1 276 29.3
2007-06-01 12:02:57 51°37.339 2°41.289 274.5 11.9 273 21.8
2007-06-01 12:03:57 51°37.345 2°40.967 273 12.1 271 23.7
2007-06-01 12:04:57 51°37.349 2°40.643 272.4 12.2 271 23.7
2007-06-01 12:05:57 51°37.356 2°40.314 274.1 12.3 272 28.2
2007-06-01 12:06:57 51°37.364 2°39.98 273.1 12.6 272 33.8
2007-06-01 12:07:57 51°37.371 2°39.642 274.7 12.7 273 37.5
2007-06-01 12:08:58 51°37.385 2°39.297 275 12.7 273 41
2007-06-01 12:09:57 51°37.397 2°38.964 274.3 12.7 273 44.7
2007-06-01 12:10:57 51°37.41 2°38.625 274.5 12.7 274 41.7
2007-06-01 12:11:57 51°37.421 2°38.287 274.7 12.6 274 41
2007-06-01 12:12:57 51°37.432 2°37.95 274.8 12.7 272 40
2007-06-01 12:13:57 51°37.442 2°37.613 274.3 12.6 274 39.1
2007-06-01 12:14:57 51°37.45 2°37.275 274.3 12.7 274 39.3
2007-06-01 12:15:57 51°37.46 2°36.934 274.3 12.7 274 41.8
2007-06-01 12:16:57 51°37.47 2°36.593 274.1 12.7 274 41.7
2007-06-01 12:17:58 51°37.479 2°36.251 272 12.6 269 40.4
2007-06-01 12:18:57 51°37.47 2°35.924 267.6 12.4 269 39.7
2007-06-01 12:19:57 51°37.459 2°35.594 268.3 12.3 268 39.2
2007-06-01 12:20:57 51°37.449 2°35.266 268.4 12.3 267 36
2007-06-01 12:21:57 51°37.429 2°34.945 259.2 11.8 253 30.8
2007-06-01 12:22:57 51°37.332 2°34.67 236.4 11.9 230 27.9
2007-06-01 12:23:57 51°37.205 2°34.426 234.6 12 231 22.6
2007-06-01 12:24:58 51°37.081 2°34.182 237.3 11.5 234 21.3
2007-06-01 12:25:57 51°36.965 2°33.935 236.6 11.9 231 29
2007-06-01 12:26:57 51°36.8 2°33.768 202.5 12.2 194 31.7
2007-06-01 12:27:57 51°36.604 2°33.679 203.9 12.1 199 32.4
2007-06-01 12:28:58 51°36.411 2°33.561 204.7 12.2 202 34.4
2007-06-01 12:29:57 51°36.224 2°33.444 205.9 12.3 203 34.6
2007-06-01 12:30:57 51°36.032 2°33.332 204.4 12.2 200 35.6
2007-06-01 12:31:57 51°35.84 2°33.219 203.4 12.3 202 36
2007-06-01 12:32:57 51°35.649 2°33.105 204.6 12.4 201 36.4
2007-06-01 12:33:58 51°35.455 2°32.986 205 12.4 201 35.8
2007-06-01 12:34:57 51°35.268 2°32.874 203.7 12.3 198 35
2007-06-01 12:35:57 51°35.076 2°32.764 204.9 12.1 200 34
2007-06-01 12:36:57 51°34.882 2°32.661 202.1 12.1 198 32.2
2007-06-01 12:37:57 51°34.688 2°32.563 201.8 12.3 197 28.2
2007-06-01 12:38:57 51°34.494 2°32.464 201.7 12.1 197 27.8
2007-06-01 12:39:57 51°34.299 2°32.367 202.4 12.3 197 28.1
2007-06-01 12:40:57 51°34.103 2°32.267 201.7 12.2 197 28.1
2007-06-01 12:41:57 51°33.908 2°32.168 202.9 12.4 197 28.8
2007-06-01 12:42:58 51°33.71 2°32.062 202.6 12.4 199 30.2
2007-06-01 12:43:57 51°33.517 2°31.96 202.6 12.6 198 28.4
2007-06-01 12:44:58 51°33.319 2°31.852 202.5 12.3 201 26.6
2007-06-01 12:45:57 51°33.127 2°31.75 201.9 12.1 198 31.4
2007-06-01 12:46:57 51°32.933 2°31.643 202.4 12.4 200 31.3
2007-06-01 12:47:57 51°32.738 2°31.534 202.2 12.5 200 28.3
2007-06-01 12:48:57 51°32.543 2°31.429 202.6 12 198 23
2007-06-01 12:49:58 51°32.346 2°31.32 202.1 12.3 197 24.7
2007-06-01 12:50:57 51°32.144 2°31.327 172.7 12.7 165 28.8
2007-06-01 12:51:57 51°31.948 2°31.466 155.9 12.8 152 30.8
2007-06-01 12:52:57 51°31.754 2°31.625 161.6 13.4 154 34
2007-06-01 12:53:58 51°31.552 2°31.768 161.9 13.2 156 37.4
2007-06-01 12:54:58 51°31.355 2°31.91 162 12.8 156 38.9
2007-06-01 12:55:57 51°31.164 2°32.05 162.3 12.5 155 36.6
2007-06-01 12:56:58 51°30.969 2°32.185 162.4 12.7 157 36.8
2007-06-01 12:57:57 51°30.781 2°32.319 162.7 12.6 155 37
2007-06-01 12:58:58 51°30.587 2°32.458 163.2 12.6 156 35.9
2007-06-01 12:59:57 51°30.399 2°32.592 163.2 12.6 157 30
2007-06-01 13:00:58 51°30.204 2°32.734 163.3 12.9 156 26.6
2007-06-01 13:01:57 51°30.014 2°32.875 163.2 12.7 155 24.7
2007-06-01 13:02:57 51°29.833 2°33.06 145.4 13.5 133 22.4
2007-06-01 13:03:58 51°29.744 2°33.409 109.2 14.6 98 20.1
2007-06-01 13:04:58 51°29.724 2°33.807 100.1 15.2 93 19.3
2007-06-01 13:05:58 51°29.702 2°34.201 100.7 14.6 95 35.4
2007-06-01 13:06:57 51°29.688 2°34.581 98.4 14.5 93 39.3
2007-06-01 13:07:58 51°29.679 2°34.966 97.9 14.3 92 40
2007-06-01 13:08:57 51°29.672 2°35.339 99.2 14.2 93 39.3
2007-06-01 13:09:58 51°29.664 2°35.727 99.5 14.2 92 36.7
2007-06-01 13:10:57 51°29.655 2°36.104 99.6 14.3 93 34.3
2007-06-01 13:11:57 51°29.645 2°36.487 100.2 14.3 91 32.1
2007-06-01 13:12:58 51°29.632 2°36.878 100.8 14.5 94 28.2
2007-06-01 13:13:58 51°29.616 2°37.266 100.6 14.6 93 26.9
2007-06-01 13:14:58 51°29.596 2°37.652 105.6 14.2 104 38.5
2007-06-01 13:15:57 51°29.46 2°37.909 158.6 12.6 158 39.3
2007-06-01 13:16:58 51°29.255 2°38.016 169.7 12.8 161 38.3
2007-06-01 13:17:57 51°29.059 2°38.119 169.8 12.5 163 38.3
2007-06-01 13:18:57 51°28.857 2°38.203 174.1 12.5 167 38.5
2007-06-01 13:19:58 51°28.649 2°38.289 172.8 12.7 166 39.3
2007-06-01 13:20:57 51°28.448 2°38.375 173.2 12.7 164 38.6
2007-06-01 13:21:58 51°28.244 2°38.463 173.3 12.4 165 37.3
2007-06-01 13:22:57 51°28.047 2°38.551 173.2 12.4 165 36.5
2007-06-01 13:23:58 51°27.844 2°38.643 172 12.2 165 35.5
2007-06-01 13:24:57 51°27.648 2°38.733 173.4 12.3 164 36.4
2007-06-01 13:25:58 51°27.447 2°38.824 173.3 12.4 164 34.9
2007-06-01 13:26:57 51°27.251 2°38.909 173.9 12.5 164 36.4
2007-06-01 13:27:58 51°27.047 2°38.999 172.5 12.5 164 36.5
2007-06-01 13:28:58 51°26.848 2°39.091 172.8 12.5 163 34.7
2007-06-01 13:29:58 51°26.646 2°39.173 173.9 12.4 166 34.3
2007-06-01 13:30:58 51°26.447 2°39.256 173.8 12.3 165 38.5
2007-06-01 13:31:57 51°26.25 2°39.337 173.3 12.5 165 39.9
2007-06-01 13:32:58 51°26.046 2°39.424 173.4 12.3 166 37.6
2007-06-01 13:33:57 51°25.851 2°39.518 167.8 12.5 157 33.4
2007-06-01 13:34:58 51°25.655 2°39.66 164.7 12.8 154 32.5
2007-06-01 13:35:57 51°25.467 2°39.804 161.9 12.7 154 31.9
2007-06-01 13:36:58 51°25.273 2°39.958 162.5 12.9 154 30.8
2007-06-01 13:37:58 51°25.08 2°40.108 162.2 12.9 154 30
2007-06-01 13:38:57 51°24.887 2°40.234 168.6 12.5 162 28.6
2007-06-01 13:39:58 51°24.682 2°40.333 172 12.5 164 27.4
2007-06-01 13:40:57 51°24.482 2°40.407 174.1 12.4 165 25.1
2007-06-01 13:41:58 51°24.274 2°40.47 177.9 12.5 172 27.5
2007-06-01 13:42:57 51°24.074 2°40.533 173.9 12.5 168 30.3
2007-06-01 13:43:58 51°23.868 2°40.613 174.2 12.5 167 31.3
2007-06-01 13:44:58 51°23.665 2°40.687 176.3 12.4 169 30.8
2007-06-01 13:45:58 51°23.462 2°40.749 177.5 12.6 168 31.3
2007-06-01 13:46:58 51°23.256 2°40.788 182.4 12.5 174 31.7
2007-06-01 13:47:57 51°23.054 2°40.822 182.1 12.3 174 31.8
2007-06-01 13:48:58 51°22.843 2°40.846 184.3 12.5 178 32
2007-06-01 13:49:58 51°22.634 2°40.854 185 12.5 178 31.4
2007-06-01 13:50:58 51°22.425 2°40.862 185.1 12.5 179 31.5
2007-06-01 13:51:58 51°22.217 2°40.872 184.3 12.3 178 30.1
2007-06-01 13:52:58 51°22.009 2°40.884 184.3 12.3 179 29.5
2007-06-01 13:53:58 51°21.801 2°40.894 184.8 12.3 178 30
2007-06-01 13:54:57 51°21.598 2°40.907 183.5 12.6 178 28.8
2007-06-01 13:55:58 51°21.388 2°40.919 184.3 12.3 178 27.2
2007-06-01 13:56:57 51°21.186 2°40.93 184.2 12.3 179 27.9
2007-06-01 13:57:58 51°20.977 2°40.94 184.1 12.3 180 28.5
2007-06-01 13:58:57 51°20.782 2°41.026 160.4 12.9 147 28.7
2007-06-01 13:59:58 51°20.629 2°41.281 130.6 13.5 118 29.4
2007-06-01 14:00:58 51°20.543 2°41.625 116.8 14.1 109 22
2007-06-01 14:01:58 51°20.462 2°41.973 117.8 14.1 111 21.6
2007-06-01 14:02:58 51°20.371 2°42.319 120.4 14 113 22.3
2007-06-01 14:03:57 51°20.282 2°42.656 119.4 14.1 114 25.1
2007-06-01 14:04:58 51°20.188 2°43.002 120.1 14 112 27.6
2007-06-01 14:05:57 51°20.095 2°43.335 120 13.8 115 28.4
2007-06-01 14:06:58 51°19.99 2°43.667 124.4 13.8 117 28.8
2007-06-01 14:07:58 51°19.884 2°43.987 124.5 13.6 117 27.2
2007-06-01 14:08:58 51°19.777 2°44.31 124.1 13.8 118 25.9
2007-06-01 14:09:58 51°19.673 2°44.636 124.1 13.9 117 24.1
2007-06-01 14:10:58 51°19.571 2°44.966 123.3 14 115 22.9
2007-06-01 14:11:58 51°19.468 2°45.296 124.8 13.9 117 12.6
2007-06-01 14:12:57 51°19.374 2°45.629 120 14.1 114 15.9
2007-06-01 14:13:58 51°19.278 2°45.973 120.1 13.8 114 19.8
2007-06-01 14:14:57 51°19.186 2°46.303 119.5 13.8 113 22.5
2007-06-01 14:15:58 51°19.09 2°46.644 119.2 13.8 112 23.2
2007-06-01 14:16:58 51°19.008 2°46.989 116.6 13.8 111 22.7
2007-06-01 14:17:58 51°18.927 2°47.333 116.8 13.9 110 21
2007-06-01 14:18:58 51°18.846 2°47.677 116.1 13.7 111 19.8
2007-06-01 14:19:58 51°18.763 2°48.017 118.3 13.9 109 17.1
2007-06-01 14:20:58 51°18.678 2°48.353 119 13.7 113 15.3
2007-06-01 14:21:57 51°18.592 2°48.682 117.8 13.6 114 12.9
2007-06-01 14:22:58 51°18.497 2°49.017 119 13.6 114 12.8
2007-06-01 14:23:58 51°18.405 2°49.346 119.8 13.6 115 13.3
2007-06-01 14:24:58 51°18.308 2°49.671 119.7 13.3 116 15.1
2007-06-01 14:25:58 51°18.212 2°49.997 120.1 13.6 115 15.8
2007-06-01 14:26:58 51°18.116 2°50.324 120.6 13.6 115 15.5
2007-06-01 14:27:58 51°18.024 2°50.653 120.6 13.6 115 14.7
2007-06-01 14:28:58 51°17.929 2°50.978 121.1 13.5 117 13.8
2007-06-01 14:29:58 51°17.831 2°51.3 124.3 13.5 119 12.3
2007-06-01 14:30:58 51°17.717 2°51.605 128.4 13.1 123 11.9
2007-06-01 14:31:58 51°17.573 2°51.869 137.3 13.2 132 12.2
2007-06-01 14:32:58 51°17.406 2°52.095 149.2 12.8 145 12.5
2007-06-01 14:33:58 51°17.215 2°52.26 159.2 13.1 155 12.3
2007-06-01 14:34:58 51°17.018 2°52.395 160.3 13 155 11.7
2007-06-01 14:35:58 51°16.82 2°52.538 161.5 13 157 11.8
2007-06-01 14:36:58 51°16.624 2°52.683 161.9 13 156 12.9
2007-06-01 14:37:57 51°16.43 2°52.818 162.7 12.8 156 13.6
2007-06-01 14:38:58 51°16.226 2°52.952 163 12.9 158 13.7
2007-06-01 14:39:58 51°16.027 2°53.089 162.3 13.1 157 13.5
2007-06-01 14:40:58 51°15.829 2°53.236 158.4 13.2 153 13.1
2007-06-01 14:41:57 51°15.637 2°53.391 157.7 13 153 12.6
2007-06-01 14:42:57 51°15.442 2°53.552 158.1 13.1 151 12.1
2007-06-01 14:43:57 51°15.246 2°53.711 157.4 13.4 152 11.4
2007-06-01 14:44:58 51°15.046 2°53.864 159.5 12.9 153 10.9
2007-06-01 14:45:57 51°14.857 2°54.02 153.5 12.8 141 11.3
2007-06-01 14:46:57 51°14.73 2°54.304 131 13.4 127 11.7
2007-06-01 14:47:57 51°14.593 2°54.586 134.1 13.4 129 11.8
2007-06-01 14:48:58 51°14.449 2°54.866 133.5 13.2 131 12.8
2007-06-01 14:49:58 51°14.316 2°55.136 129.7 12.7 129 13.1
2007-06-01 14:50:58 51°14.198 2°55.347 139.4 8.5 140 12.7
2007-06-01 14:51:58 51°14.095 2°55.439 158.7 6.2 156 12.9
2007-06-01 14:52:58 51°13.998 2°55.505 160.2 6.4 158 12.9
2007-06-01 14:53:58 51°13.897 2°55.573 159.1 6.6 156 12.7
2007-06-01 14:54:59 51°13.797 2°55.655 146.3 6.7 146 -999
2007-06-01 14:55:59 51°13.725 2°55.77 131.5 5.5 130 -999
2007-06-01 14:56:59 51°13.672 2°55.873 132.7 4.8 130 -999
2007-06-01 14:57:59 51°13.626 2°55.964 123.6 4 125 -999
2007-06-01 14:58:59 51°13.606 2°56.045 105.1 2.4 103 -999